Terminal Aerodrome Forecast
Issued by NWS

Current Version | Previous Version | Text Only | Print | Product List | Glossary On
Versions: 1 2 3 4 5 6 7 8 9 10 11 12 13
000
FTAK31 PAJN 222300
TAFAGY
TAF
PAGY 222320Z 2300/2324 22020G32KT P6SM FEW080
     FM230500 21008KT P6SM SCT080
     FM231200 VRB05KT P6SM BKN080
     FM231800 21015KT P6SM BKN120
      AMD LTD TO CLD VIS AND WIND=

USA.gov is the U.S. government's official web portal to all federal, state and local government web resources and services.